Henk — PI7858 — position and weather

sailwx.info

Track history (hours):
 
Tides and Currents Weather Stations Pressure Air Temp Water Temp Dewpoint Dewpoint Depression Visibility Wind Speed Wind Dir Waves Ship Positions

Henk

Last reported at 2018-May-25 10:59 UTC. Time now 2018-May-25 11:05 UTC.
Position N 46°12' W 001°22'.

Length 13 m.

MMSI: 244153118.

Date/timePositionNaut miles runAvg speedWind from/ knotsBaromVisibWave heightAir tempDewpointWater temp
2018-May-25 10:59N 46°12' W 001°22'1 1.8
2018-May-25 10:28N 46°13' W 001°22'3 6.1
2018-May-25 10:00N 46°16' W 001°24'3 6.7
2018-May-25 09:30N 46°18' W 001°28'3 6.8
2018-May-25 09:00N 46°20' W 001°32'3 6.7
2018-May-25 08:30N 46°21' W 001°36'3 6.5
2018-May-25 08:00N 46°23' W 001°40'3 6.3
2018-May-25 07:30N 46°26' W 001°43'3 6.2
2018-May-25 07:00N 46°28' W 001°46'3 4.6
2018-May-25 06:28N 46°30' W 001°48'0 0.0
2018-May-25 05:58N 46°30' W 001°48'0 0.0
2018-May-25 05:28N 46°30' W 001°48'0 0.0
2018-May-25 04:58N 46°30' W 001°48'0 0.0
2018-May-25 04:28N 46°30' W 001°48'0 0.0
2018-May-25 03:58N 46°30' W 001°48'0 0.0
2018-May-25 03:28N 46°30' W 001°48'0 0.0
2018-May-25 02:58N 46°30' W 001°48'0 0.0
2018-May-25 02:28N 46°30' W 001°48'0 0.0
2018-May-25 01:58N 46°30' W 001°48'0 0.0
2018-May-25 01:28N 46°30' W 001°48'0 0.0
2018-May-25 00:58N 46°30' W 001°48'0 0.0
2018-May-25 00:28N 46°30' W 001°48'0 0.0
2018-May-24 23:58N 46°30' W 001°48'0 0.0
2018-May-24 23:28N 46°30' W 001°48'0 0.0
2018-May-24 22:58N 46°30' W 001°48'0 0.0
2018-May-24 22:28N 46°30' W 001°48'0 0.0
2018-May-24 21:58N 46°30' W 001°48'0 0.0
2018-May-24 21:28N 46°30' W 001°48'0 0.0
2018-May-24 20:58N 46°30' W 001°48'0 0.0
2018-May-24 20:28N 46°30' W 001°48'0 0.0
2018-May-24 19:58N 46°30' W 001°48'0 0.0
2018-May-24 19:28N 46°30' W 001°48'0 0.0
2018-May-24 18:58N 46°30' W 001°48'0 0.0
2018-May-24 18:28N 46°30' W 001°48'0 0.0
2018-May-24 17:58N 46°30' W 001°48'0 0.0
2018-May-24 17:28N 46°30' W 001°48'0 0.0
2018-May-24 16:58N 46°30' W 001°48'0 0.0
2018-May-24 16:28N 46°30' W 001°48'0 0.0
2018-May-24 15:58N 46°30' W 001°48'0 0.0
2018-May-24 15:28N 46°30' W 001°48'0 0.0
2018-May-24 14:58N 46°30' W 001°48'0 0.0
2018-May-24 14:28N 46°30' W 001°48'0 0.0
2018-May-24 13:58N 46°30' W 001°48'0 0.0
2018-May-24 13:30N 46°30' W 001°48'60 1.2
2018-May-22 10:03N 47°20' W 002°35'0 6.5
2018-May-22 09:59N 47°21' W 002°35'3 6.2
2018-May-22 09:30N 47°24' W 002°35'3 5.9
2018-May-22 09:00N 47°27' W 002°33'3 6.1
2018-May-22 08:29N 47°29' W 002°31'2 4.0
2018-May-22 07:58N 47°30' W 002°28'4 0.9
2018-May-22 04:10N 47°30' W 002°23'0 0.0
2018-May-22 03:52N 47°30' W 002°23'0 0.0
2018-May-22 03:22N 47°30' W 002°23'0 0.0
2018-May-21 23:04N 47°30' W 002°23'0 0.0
2018-May-21 20:10N 47°30' W 002°23'0 0.0
2018-May-21 19:46N 47°30' W 002°23'0 0.0
2018-May-21 19:25N 47°30' W 002°23'0 0.0
2018-May-21 18:55N 47°30' W 002°23'0 0.0
2018-May-21 16:13N 47°30' W 002°23'  
Track history (hours):
 
Tides and Currents Weather Stations Pressure Air Temp Water Temp Dewpoint Dewpoint Depression Visibility Wind Speed Wind Dir Waves Ship Positions

Henk

Last reported at 2018-May-25 10:59 UTC. Time now 2018-May-25 11:05 UTC.
Position N 46°12' W 001°22'.

Length 13 m.

MMSI: 244153118.

Date/timePositionNaut miles runAvg speedWind from/ knotsBaromVisibWave heightAir tempDewpointWater temp
2018-May-25 10:59N 46°12' W 001°22'1 1.8
2018-May-25 10:28N 46°13' W 001°22'3 6.1
2018-May-25 10:00N 46°16' W 001°24'3 6.7
2018-May-25 09:30N 46°18' W 001°28'3 6.8
2018-May-25 09:00N 46°20' W 001°32'3 6.7
2018-May-25 08:30N 46°21' W 001°36'3 6.5
2018-May-25 08:00N 46°23' W 001°40'3 6.3
2018-May-25 07:30N 46°26' W 001°43'3 6.2
2018-May-25 07:00N 46°28' W 001°46'3 4.6
2018-May-25 06:28N 46°30' W 001°48'0 0.0
2018-May-25 05:58N 46°30' W 001°48'0 0.0
2018-May-25 05:28N 46°30' W 001°48'0 0.0
2018-May-25 04:58N 46°30' W 001°48'0 0.0
2018-May-25 04:28N 46°30' W 001°48'0 0.0
2018-May-25 03:58N 46°30' W 001°48'0 0.0
2018-May-25 03:28N 46°30' W 001°48'0 0.0
2018-May-25 02:58N 46°30' W 001°48'0 0.0
2018-May-25 02:28N 46°30' W 001°48'0 0.0
2018-May-25 01:58N 46°30' W 001°48'0 0.0
2018-May-25 01:28N 46°30' W 001°48'0 0.0
2018-May-25 00:58N 46°30' W 001°48'0 0.0
2018-May-25 00:28N 46°30' W 001°48'0 0.0
2018-May-24 23:58N 46°30' W 001°48'0 0.0
2018-May-24 23:28N 46°30' W 001°48'0 0.0
2018-May-24 22:58N 46°30' W 001°48'0 0.0
2018-May-24 22:28N 46°30' W 001°48'0 0.0
2018-May-24 21:58N 46°30' W 001°48'0 0.0
2018-May-24 21:28N 46°30' W 001°48'0 0.0
2018-May-24 20:58N 46°30' W 001°48'0 0.0
2018-May-24 20:28N 46°30' W 001°48'0 0.0
2018-May-24 19:58N 46°30' W 001°48'0 0.0
2018-May-24 19:28N 46°30' W 001°48'0 0.0
2018-May-24 18:58N 46°30' W 001°48'0 0.0
2018-May-24 18:28N 46°30' W 001°48'0 0.0
2018-May-24 17:58N 46°30' W 001°48'0 0.0
2018-May-24 17:28N 46°30' W 001°48'0 0.0
2018-May-24 16:58N 46°30' W 001°48'0 0.0
2018-May-24 16:28N 46°30' W 001°48'0 0.0
2018-May-24 15:58N 46°30' W 001°48'0 0.0
2018-May-24 15:28N 46°30' W 001°48'0 0.0
2018-May-24 14:58N 46°30' W 001°48'0 0.0
2018-May-24 14:28N 46°30' W 001°48'0 0.0
2018-May-24 13:58N 46°30' W 001°48'0 0.0
2018-May-24 13:30N 46°30' W 001°48'60 1.2
2018-May-22 10:03N 47°20' W 002°35'0 6.5
2018-May-22 09:59N 47°21' W 002°35'3 6.2
2018-May-22 09:30N 47°24' W 002°35'3 5.9
2018-May-22 09:00N 47°27' W 002°33'3 6.1
2018-May-22 08:29N 47°29' W 002°31'2 4.0
2018-May-22 07:58N 47°30' W 002°28'4 0.9
2018-May-22 04:10N 47°30' W 002°23'0 0.0
2018-May-22 03:52N 47°30' W 002°23'0 0.0
2018-May-22 03:22N 47°30' W 002°23'0 0.0
2018-May-21 23:04N 47°30' W 002°23'0 0.0
2018-May-21 20:10N 47°30' W 002°23'0 0.0
2018-May-21 19:46N 47°30' W 002°23'0 0.0
2018-May-21 19:25N 47°30' W 002°23'0 0.0
2018-May-21 18:55N 47°30' W 002°23'0 0.0
2018-May-21 16:13N 47°30' W 002°23'  

Dump ship's entire track history